Time;durP1;ratioP1;P1;durP2;ratioP2;P2;SDS_P1;SDS_P2;PMS_P1;PMS_P2;Temp;Humidity;BMP_temperature;BMP_pressure;BME280_temperature;BME280_humidity;BME280_pressure;Samples;Min_cycle;Max_cycle;Signal;HPM_P1;HPM_P2
2022/12/03 00:00:38;;;;;;;13.52;9.55;;;3.70;99.90;;;;;;5104390;28;20505;-73
2022/12/03 00:03:03;;;;;;;13.88;8.15;;;3.60;99.90;;;;;;5103483;28;20453;-73
2022/12/03 00:05:29;;;;;;;21.52;9.32;;;3.60;99.90;;;;;;5104625;28;20039;-73
2022/12/03 00:07:55;;;;;;;13.77;9.35;;;3.60;99.90;;;;;;5104990;28;20492;-73
2022/12/03 00:10:20;;;;;;;15.05;9.98;;;3.60;99.90;;;;;;5103913;28;20566;-73
2022/12/03 00:12:46;;;;;;;12.15;9.25;;;3.60;99.90;;;;;;5101337;28;20125;-73
2022/12/03 00:15:11;;;;;;;22.52;9.00;;;3.60;99.90;;;;;;5102910;28;20481;-74
2022/12/03 00:17:37;;;;;;;11.07;8.75;;;3.60;99.90;;;;;;5104032;28;20071;-73
2022/12/03 00:20:05;;;;;;;14.73;9.32;;;3.50;99.90;;;;;;5104622;28;20042;-73
2022/12/03 00:22:30;;;;;;;12.02;9.27;;;3.50;99.90;;;;;;5104454;28;20101;-73
2022/12/03 00:24:56;;;;;;;17.42;9.73;;;3.50;99.90;;;;;;5103475;28;20051;-73
2022/12/03 00:27:21;;;;;;;14.52;8.82;;;3.60;99.90;;;;;;5104820;28;20047;-73
2022/12/03 00:29:47;;;;;;;11.60;7.18;;;3.50;99.90;;;;;;5105158;28;20075;-73
2022/12/03 00:32:13;;;;;;;14.23;8.55;;;3.50;99.90;;;;;;5097766;28;20048;-73
2022/12/03 00:34:38;;;;;;;7.75;7.00;;;3.50;99.90;;;;;;5117034;27;20434;-73
2022/12/03 00:37:04;;;;;;;9.10;7.50;;;3.50;99.90;;;;;;5084254;28;20473;-72
2022/12/03 00:39:29;;;;;;;13.57;7.20;;;3.60;99.90;;;;;;5083169;28;20051;-72
2022/12/03 00:41:55;;;;;;;14.55;8.45;;;3.60;99.90;;;;;;5084132;28;20079;-73
2022/12/03 00:44:20;;;;;;;13.73;6.78;;;3.60;99.90;;;;;;5083937;28;20098;-73
2022/12/03 00:46:46;;;;;;;9.95;7.72;;;3.60;99.90;;;;;;5084462;28;20063;-73
2022/12/03 00:49:12;;;;;;;15.30;6.93;;;3.60;99.90;;;;;;5082652;28;20040;-73
2022/12/03 00:51:37;;;;;;;18.55;7.75;;;3.60;99.90;;;;;;5083729;28;20038;-73
2022/12/03 00:54:03;;;;;;;5.95;5.13;;;3.60;99.90;;;;;;5083427;28;20055;-72
2022/12/03 00:56:28;;;;;;;12.70;8.02;;;3.70;99.90;;;;;;5099078;28;20044;-73
2022/12/03 00:58:54;;;;;;;8.40;5.30;;;3.70;99.90;;;;;;5082316;28;20405;-72
2022/12/03 01:01:19;;;;;;;7.32;4.28;;;3.70;99.90;;;;;;5082573;28;20040;-73
2022/12/03 01:03:45;;;;;;;8.10;6.03;;;3.70;99.90;;;;;;5084031;28;20402;-73
2022/12/03 01:06:10;;;;;;;8.68;6.82;;;3.70;99.90;;;;;;5083100;28;20075;-74
2022/12/03 01:08:36;;;;;;;11.48;7.53;;;3.70;99.90;;;;;;5083832;28;20037;-73
2022/12/03 01:11:01;;;;;;;8.07;6.00;;;3.70;99.90;;;;;;5105162;28;20039;-73
2022/12/03 01:13:27;;;;;;;6.95;5.75;;;3.80;99.90;;;;;;5108560;28;20039;-72
2022/12/03 01:15:53;;;;;;;10.02;6.82;;;3.80;99.90;;;;;;5099765;28;20406;-73
2022/12/03 01:18:18;;;;;;;9.82;5.47;;;3.80;99.90;;;;;;5087048;28;20047;-73
2022/12/03 01:20:44;;;;;;;9.13;6.10;;;3.80;99.90;;;;;;5087912;28;20119;-72
2022/12/03 01:23:09;;;;;;;7.15;4.97;;;3.90;99.90;;;;;;5087648;28;20036;-73
2022/12/03 01:25:35;;;;;;;6.82;4.97;;;3.90;99.90;;;;;;5088869;28;20071;-72
2022/12/03 01:28:00;;;;;;;7.55;4.75;;;4.00;99.90;;;;;;5107746;28;20050;-72
2022/12/03 01:30:26;;;;;;;7.53;6.55;;;4.00;99.90;;;;;;5107133;28;20044;-72
2022/12/03 01:32:51;;;;;;;9.25;5.22;;;4.00;99.90;;;;;;5092054;28;20040;-73
2022/12/03 01:35:17;;;;;;;12.68;5.38;;;4.00;99.90;;;;;;5087932;28;20134;-73
2022/12/03 01:37:42;;;;;;;14.00;6.90;;;4.00;99.90;;;;;;5086100;28;20040;-73
2022/12/03 01:40:12;;;;;;;8.68;6.07;;;4.00;99.90;;;;;;5086284;28;20586;-73
2022/12/03 01:42:41;;;;;;;7.13;4.68;;;4.00;99.90;;;;;;5087361;28;20032;-73
2022/12/03 01:45:20;;;;;;;7.78;7.05;;;4.10;99.90;;;;;;5087094;28;20051;-73
2022/12/03 01:47:46;;;;;;;9.55;6.38;;;4.10;99.90;;;;;;5087440;28;20366;-72
2022/12/03 01:50:38;;;;;;;8.38;6.00;;;4.00;99.90;;;;;;5087364;28;20046;-73
2022/12/03 01:53:03;;;;;;;7.85;5.70;;;4.10;99.90;;;;;;5084603;28;20044;-73
2022/12/03 01:55:29;;;;;;;7.35;6.45;;;4.10;99.90;;;;;;5086343;28;20055;-73
2022/12/03 01:57:58;;;;;;;10.20;5.88;;;4.10;99.90;;;;;;5119875;27;20290;-73
2022/12/03 02:00:28;;;;;;;7.35;5.00;;;4.10;99.90;;;;;;5087230;28;20166;-73
2022/12/03 02:03:10;;;;;;;13.18;7.57;;;4.10;99.90;;;;;;5086941;28;20079;-73
2022/12/03 02:05:37;;;;;;;10.63;6.47;;;4.10;99.90;;;;;;5102408;28;20063;-73
2022/12/03 02:08:26;;;;;;;6.13;5.63;;;4.10;99.90;;;;;;5106205;28;20071;-73
2022/12/03 02:10:52;;;;;;;9.15;4.93;;;4.00;99.90;;;;;;5106459;28;20039;-73
2022/12/03 02:13:18;;;;;;;12.90;5.72;;;4.00;99.90;;;;;;5107576;28;20036;-72
2022/12/03 02:15:44;;;;;;;6.18;4.63;;;4.10;99.90;;;;;;5099350;28;20391;-73
2022/12/03 02:18:09;;;;;;;10.20;5.75;;;4.10;99.90;;;;;;5091054;28;20050;-73
2022/12/03 02:20:47;;;;;;;9.48;7.22;;;4.00;99.90;;;;;;5106894;28;20050;-73
2022/12/03 02:23:36;;;;;;;13.38;6.82;;;4.00;99.90;;;;;;5105741;28;20453;-74
2022/12/03 02:26:02;;;;;;;8.45;7.35;;;4.00;99.90;;;;;;5072947;28;20043;-73
2022/12/03 02:28:28;;;;;;;10.43;5.45;;;4.00;99.90;;;;;;5107391;28;20043;-73
2022/12/03 02:30:53;;;;;;;7.18;4.68;;;4.00;99.90;;;;;;5106663;28;20043;-73
2022/12/03 02:33:19;;;;;;;10.30;6.30;;;4.00;99.90;;;;;;5106901;28;20036;-73
2022/12/03 02:35:44;;;;;;;11.35;5.78;;;4.10;99.90;;;;;;5107204;28;20048;-73
2022/12/03 02:38:13;;;;;;;8.68;7.00;;;4.00;99.90;;;;;;5105263;28;20268;-73
2022/12/03 02:40:39;;;;;;;11.68;6.55;;;4.00;99.90;;;;;;5106080;28;20545;-73
2022/12/03 02:43:05;;;;;;;10.13;5.05;;;4.10;99.90;;;;;;5105375;28;20063;-73
2022/12/03 02:45:35;;;;;;;12.75;6.55;;;4.00;99.90;;;;;;5100916;28;20039;-74
2022/12/03 02:48:05;;;;;;;8.00;4.50;;;4.10;99.90;;;;;;5086223;28;20047;-72
2022/12/03 02:50:35;;;;;;;9.43;6.10;;;4.00;99.90;;;;;;5086712;28;20051;-73
2022/12/03 02:53:06;;;;;;;8.38;5.57;;;4.10;99.90;;;;;;5084777;28;20036;-72
2022/12/03 02:55:34;;;;;;;9.68;6.30;;;4.10;99.90;;;;;;5085256;28;20055;-73
2022/12/03 02:58:01;;;;;;;8.65;7.10;;;4.10;99.90;;;;;;5084069;28;20036;-73
2022/12/03 03:00:27;;;;;;;6.97;5.15;;;4.10;99.90;;;;;;5098871;28;20035;-73
2022/12/03 03:02:53;;;;;;;17.30;5.68;;;4.10;99.90;;;;;;5105910;28;20453;-73
2022/12/03 03:05:21;;;;;;;8.82;6.82;;;4.10;99.90;;;;;;5105927;28;20050;-72
2022/12/03 03:07:49;;;;;;;12.63;7.03;;;4.10;99.90;;;;;;5106666;28;20498;-72
2022/12/03 03:10:17;;;;;;;9.82;6.15;;;4.00;99.90;;;;;;5105616;28;20036;-73
2022/12/03 03:12:43;;;;;;;8.07;5.57;;;4.10;99.90;;;;;;5105192;28;20062;-73
2022/12/03 03:15:10;;;;;;;11.13;6.35;;;4.00;99.90;;;;;;5104034;28;20047;-73
2022/12/03 03:17:36;;;;;;;7.70;6.03;;;4.10;99.90;;;;;;5105890;28;20047;-73
2022/12/03 03:20:03;;;;;;;12.18;6.07;;;4.00;99.90;;;;;;5106016;28;20044;-73
2022/12/03 03:22:33;;;;;;;9.93;5.90;;;4.00;99.90;;;;;;5106244;28;20413;-72
2022/12/03 03:24:59;;;;;;;16.10;7.35;;;4.00;99.90;;;;;;5104689;28;20044;-73
2022/12/03 03:27:25;;;;;;;11.10;5.80;;;4.00;99.90;;;;;;5105727;28;20042;-72
2022/12/03 03:29:50;;;;;;;8.45;6.30;;;4.00;99.90;;;;;;5097179;28;20040;-74
2022/12/03 03:32:16;;;;;;;7.10;5.05;;;4.00;99.90;;;;;;5085796;28;20506;-71
2022/12/03 03:34:42;;;;;;;11.00;5.95;;;4.00;99.90;;;;;;5083975;28;20705;-73
2022/12/03 03:37:07;;;;;;;12.18;6.55;;;4.00;99.90;;;;;;5083600;28;20058;-73
2022/12/03 03:39:34;;;;;;;5.78;5.13;;;4.00;99.90;;;;;;5084609;28;20119;-72
2022/12/03 03:41:59;;;;;;;10.13;6.28;;;4.10;99.90;;;;;;5085245;28;20135;-72
2022/12/03 03:44:26;;;;;;;11.63;6.65;;;4.10;99.90;;;;;;5104712;28;20114;-73
2022/12/03 03:46:51;;;;;;;13.32;8.73;;;4.10;99.90;;;;;;5103866;28;20104;-74
2022/12/03 03:49:17;;;;;;;15.27;7.30;;;4.10;99.90;;;;;;5105289;28;20489;-73
2022/12/03 03:51:43;;;;;;;8.50;6.63;;;4.10;99.90;;;;;;5105127;28;20046;-72
2022/12/03 03:54:08;;;;;;;6.93;5.50;;;4.20;99.90;;;;;;5103786;28;20055;-72
2022/12/03 03:56:34;;;;;;;12.50;6.20;;;4.20;99.90;;;;;;5105307;28;20538;-73
2022/12/03 03:59:00;;;;;;;11.95;6.97;;;4.20;99.90;;;;;;5087927;28;20055;-72
2022/12/03 04:01:27;;;;;;;8.35;6.25;;;4.20;99.90;;;;;;5084058;28;20048;-72
2022/12/03 04:03:53;;;;;;;8.35;6.55;;;4.20;99.90;;;;;;5082792;28;20553;-72
2022/12/03 04:06:19;;;;;;;13.45;7.20;;;4.30;99.90;;;;;;5084632;28;20090;-73
2022/12/03 04:08:45;;;;;;;11.02;7.50;;;4.30;99.90;;;;;;5084639;28;20071;-72
2022/12/03 04:13:54;;;;;;;8.80;6.25;;;4.30;99.90;;;;;;5084538;28;20044;-73
2022/12/03 04:16:20;;;;;;;8.73;6.57;;;4.30;99.90;;;;;;5084815;28;20618;-73
2022/12/03 04:18:45;;;;;;;18.30;8.10;;;4.30;99.90;;;;;;5084571;28;20032;-72
2022/12/03 04:24:01;;;;;;;11.35;5.47;;;4.30;99.90;;;;;;5083294;28;20040;-73
2022/12/03 04:29:12;;;;;;;13.88;8.50;;;4.40;99.90;;;;;;5103482;28;20096;-73
2022/12/03 04:37:06;;;;;;;10.93;6.10;;;4.30;99.90;;;;;;5104484;28;20080;-73
2022/12/03 04:39:32;;;;;;;10.20;6.25;;;4.30;99.90;;;;;;5103927;28;20040;-72
2022/12/03 04:41:58;;;;;;;8.90;7.20;;;4.30;99.90;;;;;;5104479;28;20045;-74
2022/12/03 04:44:32;;;;;;;17.13;7.55;;;4.30;99.90;;;;;;5103150;28;20036;-74
2022/12/03 04:47:02;;;;;;;18.80;9.40;;;4.40;99.90;;;;;;5103909;28;20048;-73
2022/12/03 04:49:27;;;;;;;10.05;6.50;;;4.30;99.90;;;;;;5104593;28;20039;-73
2022/12/03 04:51:53;;;;;;;14.10;8.75;;;4.30;99.90;;;;;;5103839;28;20084;-73
2022/12/03 04:54:19;;;;;;;10.57;6.35;;;4.40;99.90;;;;;;5103200;28;20565;-73
2022/12/03 04:57:03;;;;;;;11.30;7.95;;;4.40;99.90;;;;;;5062549;28;20074;-74
2022/12/03 04:59:28;;;;;;;13.63;8.40;;;4.40;99.90;;;;;;5102780;28;20044;-72
2022/12/03 05:01:54;;;;;;;16.70;7.68;;;4.40;99.90;;;;;;5082995;28;20444;-73
2022/12/03 05:04:20;;;;;;;14.40;10.07;;;4.40;99.90;;;;;;5098401;28;20061;-73
2022/12/03 05:06:46;;;;;;;17.67;8.30;;;4.30;99.90;;;;;;5103603;28;20612;-72
2022/12/03 05:09:11;;;;;;;9.35;7.68;;;4.40;99.90;;;;;;5103073;28;20040;-72
2022/12/03 05:11:37;;;;;;;12.32;8.23;;;4.40;99.90;;;;;;5104524;28;20180;-73
2022/12/03 05:14:03;;;;;;;15.68;8.68;;;4.40;99.90;;;;;;5102708;28;20043;-72
2022/12/03 05:16:29;;;;;;;13.23;8.30;;;4.30;99.90;;;;;;5104299;28;20063;-73
2022/12/03 05:18:54;;;;;;;10.73;6.25;;;4.40;99.90;;;;;;5103226;28;20032;-72
2022/12/03 05:21:20;;;;;;;11.18;7.30;;;4.30;99.90;;;;;;5102486;28;20046;-73
2022/12/03 05:23:45;;;;;;;13.63;7.63;;;4.30;99.90;;;;;;5103422;28;20114;-73
2022/12/03 05:26:11;;;;;;;12.32;6.72;;;4.40;99.90;;;;;;5103506;28;20047;-73
2022/12/03 05:28:36;;;;;;;9.00;6.50;;;4.30;99.90;;;;;;5104366;28;20044;-72
2022/12/03 05:31:03;;;;;;;11.85;7.13;;;4.30;99.90;;;;;;5103923;28;20040;-73
2022/12/03 05:33:29;;;;;;;11.77;5.80;;;4.30;99.90;;;;;;5104248;28;20055;-73
2022/12/03 05:35:55;;;;;;;14.40;8.02;;;4.30;99.90;;;;;;5102262;28;20043;-73
2022/12/03 05:38:21;;;;;;;18.20;9.85;;;4.30;99.90;;;;;;5102504;28;20233;-73
2022/12/03 05:40:46;;;;;;;16.50;8.73;;;4.30;99.90;;;;;;5102152;28;20100;-74
2022/12/03 05:43:12;;;;;;;21.58;8.15;;;4.30;99.90;;;;;;5103586;28;20074;-73
2022/12/03 05:45:40;;;;;;;21.42;9.50;;;4.30;99.90;;;;;;5103790;28;20535;-72
2022/12/03 05:48:11;;;;;;;12.27;8.98;;;4.30;99.90;;;;;;5099679;28;20530;-72
2022/12/03 05:50:38;;;;;;;11.07;8.50;;;4.30;99.90;;;;;;5083407;28;20124;-73
2022/12/03 05:53:04;;;;;;;11.93;7.88;;;4.30;99.90;;;;;;5083000;28;20052;-73
2022/12/03 05:55:30;;;;;;;11.82;8.70;;;4.30;99.90;;;;;;5082391;28;20688;-72
2022/12/03 05:57:56;;;;;;;10.73;6.45;;;4.30;99.90;;;;;;5084790;28;20437;-73
2022/12/03 06:00:24;;;;;;;13.02;7.38;;;4.30;99.90;;;;;;5087357;28;20040;-73
2022/12/03 06:02:50;;;;;;;8.95;8.07;;;4.30;99.90;;;;;;5087311;28;20116;-72
2022/12/03 06:05:18;;;;;;;13.07;7.25;;;4.30;99.90;;;;;;5097467;28;20032;-73
2022/12/03 06:07:44;;;;;;;11.45;8.00;;;4.20;99.90;;;;;;5107361;28;20086;-73
2022/12/03 06:10:13;;;;;;;10.80;9.15;;;4.20;99.90;;;;;;5106120;28;20142;-72
2022/12/03 06:12:38;;;;;;;11.27;7.90;;;4.20;99.90;;;;;;5107189;28;20110;-72
2022/12/03 06:15:05;;;;;;;13.43;8.02;;;4.30;99.90;;;;;;5106995;28;20150;-73
2022/12/03 06:17:30;;;;;;;17.83;7.68;;;4.20;99.90;;;;;;5105953;28;20682;-72
2022/12/03 06:19:56;;;;;;;9.85;7.03;;;4.30;99.90;;;;;;5105604;28;20043;-72
2022/12/03 06:22:21;;;;;;;12.93;8.15;;;4.30;99.90;;;;;;5106956;28;20115;-72
2022/12/03 06:24:47;;;;;;;17.30;10.50;;;4.20;99.90;;;;;;5105771;28;20035;-72
2022/12/03 06:27:12;;;;;;;15.40;6.60;;;4.20;99.90;;;;;;5106951;28;20104;-72
2022/12/03 06:29:38;;;;;;;9.85;6.70;;;4.20;99.90;;;;;;5107509;28;20515;-74
2022/12/03 06:32:04;;;;;;;14.27;7.63;;;4.20;99.90;;;;;;5106742;28;20043;-73
2022/12/03 06:34:30;;;;;;;15.27;8.63;;;4.20;99.90;;;;;;5086514;28;20486;-74
2022/12/03 06:36:56;;;;;;;13.48;7.60;;;4.20;99.90;;;;;;5086479;28;20466;-73
2022/12/03 06:39:21;;;;;;;8.02;6.10;;;4.20;99.90;;;;;;5102498;28;20045;-73
2022/12/03 06:41:47;;;;;;;12.98;7.82;;;4.20;99.90;;;;;;5106377;28;20036;-74
2022/12/03 06:44:13;;;;;;;14.38;9.18;;;4.20;99.90;;;;;;5105072;28;20040;-74
2022/12/03 06:46:38;;;;;;;10.23;8.13;;;4.20;99.90;;;;;;5105102;28;20509;-74
2022/12/03 06:49:04;;;;;;;14.57;8.50;;;4.20;99.90;;;;;;5106457;28;20039;-74
2022/12/03 06:51:29;;;;;;;11.98;6.57;;;4.20;99.90;;;;;;5106821;28;20145;-72
2022/12/03 06:53:55;;;;;;;12.85;7.60;;;4.20;99.90;;;;;;5104585;28;20430;-72
2022/12/03 06:56:21;;;;;;;12.05;9.32;;;4.20;99.90;;;;;;5106410;28;20485;-73
2022/12/03 06:58:46;;;;;;;10.95;8.35;;;4.10;99.90;;;;;;5107080;28;20398;-75
2022/12/03 07:01:12;;;;;;;9.55;7.72;;;4.20;99.90;;;;;;5113567;27;20078;-74
2022/12/03 07:03:38;;;;;;;12.82;8.20;;;4.20;99.90;;;;;;5109776;27;20390;-73
2022/12/03 07:06:03;;;;;;;10.20;6.75;;;4.10;99.90;;;;;;5106002;27;20043;-74
2022/12/03 07:08:29;;;;;;;9.90;7.38;;;4.10;99.90;;;;;;5125331;27;20046;-75
2022/12/03 07:10:55;;;;;;;15.93;10.23;;;4.10;99.90;;;;;;5125589;27;20697;-74
2022/12/03 07:13:21;;;;;;;10.40;7.45;;;4.10;99.90;;;;;;5119841;27;20069;-74
2022/12/03 07:15:46;;;;;;;9.68;7.80;;;4.10;99.90;;;;;;5113425;27;20486;-75
2022/12/03 07:18:12;;;;;;;15.65;6.47;;;4.10;99.90;;;;;;5138692;27;20044;-72
2022/12/03 07:20:37;;;;;;;10.27;6.82;;;4.10;99.90;;;;;;5106001;27;20088;-71
2022/12/03 07:23:03;;;;;;;11.60;6.82;;;4.10;99.90;;;;;;5092997;28;20040;-72
2022/12/03 07:25:29;;;;;;;13.13;8.63;;;4.10;99.90;;;;;;5087145;28;20044;-72
2022/12/03 07:27:55;;;;;;;9.10;7.07;;;4.10;99.90;;;;;;5106520;27;20554;-72
2022/12/03 07:30:22;;;;;;;17.35;7.25;;;4.10;99.90;;;;;;5125449;27;20046;-74
2022/12/03 07:32:48;;;;;;;15.10;8.10;;;4.10;99.90;;;;;;5127105;27;20061;-75
2022/12/03 07:35:13;;;;;;;10.80;6.70;;;4.10;99.90;;;;;;5125960;27;20043;-74
2022/12/03 07:37:39;;;;;;;12.98;7.00;;;4.10;99.90;;;;;;5116332;27;20619;-74
2022/12/03 07:40:05;;;;;;;10.68;7.07;;;4.10;99.90;;;;;;5086851;28;20478;-75
2022/12/03 07:42:31;;;;;;;19.20;8.95;;;4.10;99.90;;;;;;5083754;28;20126;-74
2022/12/03 07:44:56;;;;;;;12.32;7.05;;;4.10;99.90;;;;;;5102010;27;20446;-74
2022/12/03 07:47:22;;;;;;;13.80;7.90;;;4.00;99.90;;;;;;5105891;28;20046;-75
2022/12/03 07:49:47;;;;;;;11.68;6.75;;;4.10;99.90;;;;;;5118457;27;20051;-74
2022/12/03 07:52:13;;;;;;;14.95;7.45;;;4.00;99.90;;;;;;5107405;27;20043;-72
2022/12/03 07:54:38;;;;;;;8.43;6.30;;;4.00;99.90;;;;;;5104738;27;20068;-72
2022/12/03 07:57:04;;;;;;;11.82;8.05;;;4.10;99.90;;;;;;5101846;27;20046;-73
2022/12/03 07:59:29;;;;;;;7.95;6.60;;;4.00;99.90;;;;;;5093186;27;20089;-75
2022/12/03 08:01:55;;;;;;;8.80;6.05;;;4.00;99.90;;;;;;5097664;28;20092;-75
2022/12/03 08:04:21;;;;;;;14.48;6.95;;;4.10;99.90;;;;;;5116385;27;20126;-75
2022/12/03 08:06:47;;;;;;;10.60;6.85;;;4.00;99.90;;;;;;5112517;27;20032;-75
2022/12/03 08:09:13;;;;;;;9.27;7.03;;;4.00;99.90;;;;;;5102256;28;20426;-73
2022/12/03 08:11:40;;;;;;;10.88;7.97;;;4.00;99.90;;;;;;5100301;28;20096;-74
2022/12/03 08:14:13;;;;;;;14.18;8.68;;;4.00;99.90;;;;;;5102045;28;20044;-76
2022/12/03 08:16:41;;;;;;;15.50;7.13;;;4.00;99.90;;;;;;5103745;28;20055;-77
2022/12/03 08:19:14;;;;;;;16.83;8.15;;;4.00;99.90;;;;;;5103158;28;20043;-74
2022/12/03 08:21:40;;;;;;;10.95;7.30;;;4.00;99.90;;;;;;5104513;28;20050;-76
2022/12/03 08:24:15;;;;;;;10.40;5.72;;;4.00;99.90;;;;;;5103263;28;20043;-73
2022/12/03 08:26:45;;;;;;;9.32;6.75;;;4.00;99.90;;;;;;5104470;28;20039;-74
2022/12/03 08:29:17;;;;;;;10.50;6.63;;;3.90;99.90;;;;;;5104822;28;20096;-74
2022/12/03 08:31:53;;;;;;;14.32;6.93;;;3.90;99.90;;;;;;5104358;28;20035;-75
2022/12/03 08:34:25;;;;;;;16.02;5.80;;;3.90;99.90;;;;;;5104879;28;20040;-74
2022/12/03 08:36:58;;;;;;;6.65;4.75;;;4.00;99.90;;;;;;5104083;28;20044;-73
2022/12/03 08:39:32;;;;;;;10.63;6.82;;;4.00;99.90;;;;;;5103643;28;20482;-74
2022/12/03 08:44:53;;;;;;;11.27;7.20;;;4.00;99.90;;;;;;5090859;28;20044;-73
2022/12/03 08:47:23;;;;;;;9.50;6.88;;;4.00;99.90;;;;;;5103857;28;20118;-75
2022/12/03 08:50:10;;;;;;;12.85;7.22;;;4.00;99.90;;;;;;5104314;28;20063;-75
2022/12/03 08:52:35;;;;;;;20.05;6.47;;;4.00;99.90;;;;;;5104287;28;20043;-75
2022/12/03 08:55:29;;;;;;;12.77;7.47;;;4.00;99.90;;;;;;5102859;28;20039;-73
2022/12/03 08:57:55;;;;;;;12.80;8.05;;;4.00;99.90;;;;;;5086466;28;20046;-75
2022/12/03 09:00:22;;;;;;;17.88;6.20;;;4.00;99.90;;;;;;5104674;28;20047;-75
2022/12/03 09:02:54;;;;;;;11.45;8.18;;;3.90;99.90;;;;;;5105043;28;20040;-73
2022/12/03 09:05:27;;;;;;;14.07;7.65;;;4.00;99.90;;;;;;5103913;28;20490;-75
2022/12/03 09:07:53;;;;;;;13.15;7.30;;;4.00;99.90;;;;;;5103819;28;20040;-72
2022/12/03 09:10:19;;;;;;;14.27;6.68;;;3.90;99.90;;;;;;5102376;28;20049;-75
2022/12/03 09:12:45;;;;;;;11.90;6.63;;;3.90;99.90;;;;;;5104478;28;20057;-78
2022/12/03 09:15:10;;;;;;;9.00;6.30;;;4.00;99.90;;;;;;5103732;28;20074;-73
2022/12/03 09:17:36;;;;;;;7.82;7.10;;;3.90;99.90;;;;;;5104199;28;20410;-74
2022/12/03 09:20:02;;;;;;;10.93;7.68;;;3.90;99.90;;;;;;5103843;28;20055;-77
2022/12/03 09:22:28;;;;;;;11.07;8.07;;;3.90;99.90;;;;;;5103837;28;20040;-74
2022/12/03 09:24:53;;;;;;;11.40;7.30;;;4.00;99.90;;;;;;5092793;28;20406;-73
2022/12/03 09:27:21;;;;;;;18.13;8.55;;;4.00;99.90;;;;;;5100078;28;20047;-74
2022/12/03 09:29:47;;;;;;;10.18;7.18;;;4.00;99.90;;;;;;5102395;28;20052;-72
2022/12/03 09:32:12;;;;;;;20.15;8.85;;;4.00;99.90;;;;;;5105751;28;20140;-74
2022/12/03 09:34:38;;;;;;;8.10;6.15;;;3.90;99.90;;;;;;5106441;28;20066;-75
2022/12/03 09:37:04;;;;;;;10.15;6.25;;;3.90;99.90;;;;;;5107222;28;20032;-74
2022/12/03 09:39:29;;;;;;;12.18;7.10;;;3.90;99.90;;;;;;5105351;28;20040;-74
2022/12/03 09:41:55;;;;;;;13.07;7.28;;;3.90;99.90;;;;;;5107456;28;20038;-73
2022/12/03 09:44:21;;;;;;;14.43;8.02;;;3.90;99.90;;;;;;5106216;28;20055;-79
2022/12/03 09:46:47;;;;;;;17.80;7.47;;;3.90;99.90;;;;;;5107657;28;20062;-74
2022/12/03 09:49:16;;;;;;;18.55;8.48;;;3.90;99.90;;;;;;5108640;27;20096;-75
2022/12/03 09:51:43;;;;;;;12.02;7.93;;;3.90;99.90;;;;;;5102997;28;20093;-74
2022/12/03 09:54:15;;;;;;;13.02;7.97;;;3.90;99.90;;;;;;5102734;28;20532;-74
2022/12/03 09:56:40;;;;;;;10.45;7.10;;;3.90;99.90;;;;;;5106844;28;20047;-76
2022/12/03 09:59:12;;;;;;;14.93;9.23;;;3.90;99.90;;;;;;5107046;28;20074;-72
2022/12/03 10:01:38;;;;;;;14.27;9.07;;;3.90;99.90;;;;;;5106961;28;20104;-77
2022/12/03 10:04:04;;;;;;;14.05;7.35;;;3.90;99.90;;;;;;5078243;28;20475;-72
2022/12/03 10:06:30;;;;;;;12.30;7.10;;;3.90;99.90;;;;;;5107586;28;20043;-72
2022/12/03 10:08:58;;;;;;;10.63;8.25;;;3.90;99.90;;;;;;5105763;28;20089;-73
2022/12/03 10:11:25;;;;;;;11.95;8.23;;;3.90;99.90;;;;;;5092989;28;20044;-73
2022/12/03 10:13:52;;;;;;;15.65;7.32;;;3.90;99.90;;;;;;5100029;27;20066;-75
2022/12/03 10:16:19;;;;;;;12.80;7.43;;;3.90;99.90;;;;;;5106341;27;20055;-74
2022/12/03 10:18:51;;;;;;;11.10;8.30;;;3.80;99.90;;;;;;5107874;28;20401;-73
2022/12/03 10:21:18;;;;;;;10.63;6.95;;;3.90;99.90;;;;;;5107853;28;20097;-73
2022/12/03 10:23:45;;;;;;;19.98;7.50;;;3.90;99.90;;;;;;5104444;28;20076;-77
2022/12/03 10:26:11;;;;;;;11.48;8.07;;;3.90;99.90;;;;;;5105396;28;20114;-78
2022/12/03 10:28:39;;;;;;;21.38;9.65;;;3.90;99.90;;;;;;5105976;28;20121;-76
2022/12/03 10:31:08;;;;;;;8.30;7.50;;;3.90;99.90;;;;;;5134459;27;20047;-78
2022/12/03 10:33:46;;;;;;;11.23;8.82;;;3.90;99.90;;;;;;5104415;28;20044;-76
2022/12/03 10:36:17;;;;;;;14.30;7.55;;;3.90;99.90;;;;;;5100041;28;20054;-79
2022/12/03 10:38:43;;;;;;;13.37;8.37;;;3.90;99.90;;;;;;5102029;28;20043;-78
2022/12/03 10:41:26;;;;;;;8.88;6.43;;;3.90;99.90;;;;;;5105950;27;20300;-75
2022/12/03 10:43:52;;;;;;;14.50;8.27;;;3.90;99.90;;;;;;5102553;28;20042;-77
2022/12/03 10:46:21;;;;;;;10.75;7.53;;;4.00;99.90;;;;;;5101347;28;20032;-78
2022/12/03 10:49:18;;;;;;;12.82;8.40;;;4.00;99.90;;;;;;5104185;27;20423;-77
2022/12/03 10:51:46;;;;;;;16.20;9.80;;;4.00;99.90;;;;;;5080826;28;20044;-76
2022/12/03 10:54:23;;;;;;;13.57;7.43;;;4.00;99.90;;;;;;5101410;28;20112;-73
2022/12/03 10:56:50;;;;;;;14.95;8.65;;;4.00;99.90;;;;;;5102957;28;20513;-73
2022/12/03 10:59:21;;;;;;;13.32;8.93;;;4.00;99.90;;;;;;5100997;28;20067;-74
2022/12/03 11:01:48;;;;;;;14.25;8.93;;;4.00;99.90;;;;;;5087741;28;20055;-76
2022/12/03 11:04:19;;;;;;;15.88;9.10;;;4.00;99.90;;;;;;5137257;27;20036;-76
2022/12/03 11:06:45;;;;;;;15.30;8.38;;;4.00;99.90;;;;;;5101675;28;20032;-75
2022/12/03 11:09:21;;;;;;;11.57;8.70;;;4.00;99.90;;;;;;5103302;28;20067;-78
2022/12/03 11:11:47;;;;;;;10.23;6.90;;;4.00;99.90;;;;;;5106270;28;20359;-75
2022/12/03 11:14:33;;;;;;;12.80;7.10;;;4.00;99.90;;;;;;5104742;28;20612;-79
2022/12/03 11:16:58;;;;;;;17.63;7.63;;;4.00;99.90;;;;;;5098290;27;20039;-79
2022/12/03 11:19:38;;;;;;;15.07;8.82;;;4.00;99.90;;;;;;5108408;27;20040;-76
2022/12/03 11:22:04;;;;;;;22.65;8.20;;;4.00;99.90;;;;;;5099897;28;20520;-76
2022/12/03 11:24:34;;;;;;;15.05;8.27;;;4.10;99.90;;;;;;5101603;28;20040;-77
2022/12/03 11:27:00;;;;;;;14.75;6.85;;;4.00;99.90;;;;;;5101853;27;20089;-75
2022/12/03 11:29:51;;;;;;;10.98;7.93;;;4.00;99.90;;;;;;5103835;28;20083;-75
2022/12/03 11:32:42;;;;;;;14.23;7.65;;;4.00;99.90;;;;;;5103635;28;20092;-75
2022/12/03 11:35:25;;;;;;;10.27;7.22;;;4.00;99.90;;;;;;5102480;28;20150;-76
2022/12/03 11:37:51;;;;;;;13.40;8.20;;;4.00;99.90;;;;;;5102688;28;20083;-75
2022/12/03 11:40:17;;;;;;;13.48;7.55;;;4.00;99.90;;;;;;5095376;27;20443;-75
2022/12/03 11:42:44;;;;;;;7.50;6.50;;;4.00;99.90;;;;;;5091135;28;20035;-76
2022/12/03 11:45:30;;;;;;;21.00;10.02;;;4.00;99.90;;;;;;5103134;28;20032;-76
2022/12/03 11:47:58;;;;;;;11.23;9.45;;;4.00;99.90;;;;;;5103637;28;20065;-76
2022/12/03 11:50:49;;;;;;;11.32;7.22;;;4.00;99.90;;;;;;5104660;28;20097;-76
2022/12/03 11:53:22;;;;;;;12.20;9.32;;;4.10;99.90;;;;;;5104061;27;20535;-77
2022/12/03 11:56:05;;;;;;;10.35;8.55;;;4.10;99.90;;;;;;5082612;28;20043;-76
2022/12/03 11:58:33;;;;;;;11.82;8.57;;;4.10;99.90;;;;;;5103905;28;20048;-76
2022/12/03 12:01:01;;;;;;;15.85;9.50;;;4.10;99.90;;;;;;5102976;28;20043;-77
2022/12/03 12:03:30;;;;;;;12.90;10.23;;;4.10;99.90;;;;;;5101314;28;20130;-76
2022/12/03 12:06:03;;;;;;;14.70;10.50;;;4.00;99.90;;;;;;5101559;28;20035;-76
2022/12/03 12:08:29;;;;;;;11.63;8.95;;;4.10;99.90;;;;;;5082830;28;20123;-77
2022/12/03 12:10:56;;;;;;;14.68;9.07;;;4.10;99.90;;;;;;5104424;27;20078;-76
2022/12/03 12:13:30;;;;;;;10.48;6.90;;;4.10;99.90;;;;;;5105906;27;20043;-75
2022/12/03 12:16:04;;;;;;;16.63;10.43;;;4.10;99.90;;;;;;5105133;27;20047;-77
2022/12/03 12:18:33;;;;;;;13.73;8.40;;;4.10;99.90;;;;;;5099644;28;20050;-77
2022/12/03 12:21:36;;;;;;;19.58;9.18;;;4.10;99.90;;;;;;5090211;27;20047;-77
2022/12/03 12:24:40;;;;;;;12.65;7.38;;;4.10;99.90;;;;;;5122656;27;20051;-75
2022/12/03 12:27:11;;;;;;;10.50;7.45;;;4.10;99.90;;;;;;5107713;27;20070;-76
2022/12/03 12:29:38;;;;;;;11.60;7.65;;;4.10;99.90;;;;;;5099693;28;20055;-85
2022/12/03 12:32:14;;;;;;;15.95;9.32;;;4.10;99.90;;;;;;5135289;27;20035;-84
2022/12/03 12:34:52;;;;;;;13.50;8.57;;;4.10;99.90;;;;;;5136012;27;20040;-84
2022/12/03 12:37:21;;;;;;;13.73;8.98;;;4.10;99.90;;;;;;5104441;28;20048;-76
2022/12/03 12:39:47;;;;;;;10.77;8.05;;;4.10;99.90;;;;;;5103559;28;20172;-84
2022/12/03 12:42:29;;;;;;;9.82;7.78;;;4.10;99.90;;;;;;5099853;27;20117;-83
2022/12/03 12:45:22;;;;;;;18.25;8.23;;;4.10;99.90;;;;;;5137969;27;20067;-86
2022/12/03 12:48:02;;;;;;;13.40;8.77;;;4.10;99.90;;;;;;5102187;27;20040;-85
2022/12/03 12:50:30;;;;;;;13.95;7.30;;;4.00;99.90;;;;;;5093510;27;20047;-80
2022/12/03 12:53:17;;;;;;;14.27;9.15;;;4.00;99.90;;;;;;5079264;27;20051;-85
2022/12/03 12:55:42;;;;;;;15.60;9.57;;;4.00;99.90;;;;;;5082067;28;20426;-75
2022/12/03 12:58:14;;;;;;;18.27;9.18;;;4.00;99.90;;;;;;5079130;28;20340;-83
2022/12/03 13:00:40;;;;;;;9.32;5.72;;;4.00;99.90;;;;;;5083520;28;20193;-79
2022/12/03 13:03:07;;;;;;;17.65;10.10;;;4.10;99.90;;;;;;5082649;28;20074;-78
2022/12/03 13:05:39;;;;;;;14.10;10.07;;;4.10;99.90;;;;;;5078734;28;20051;-77
2022/12/03 13:08:19;;;;;;;;;;;4.00;99.90;;;;;;5077728;28;20517;-75
2022/12/03 13:10:44;;;;;;;9.68;7.35;;;4.00;99.90;;;;;;5077830;28;20082;-76
2022/12/03 13:13:28;;;;;;;13.00;7.88;;;4.10;99.90;;;;;;5077541;28;20452;-79